Flight Track Log - Related Links

Times and Time Zones

All times are in EDT time to prevent confusion due to time zone crossing. See the SWA1031 flight status page for this flight to view local times or setup timezone preferences in your user account.

Time Position Orientation Groundspeed Altitude Reporting Facility
EDT Latitude Longitude Course Direction KTS MPH feet Rate Location/Type
Mon 09:34:24 PM 38.7333 -90.2833 61° Northeast 198 228 2,500  Level Gateway (St. Louis) TRACON
Mon 09:35:09 PM 38.7522 -90.2403 61° Northeast 251 289 4,100 3,083 Climbing Kansas City Center
Mon 09:36:13 PM 38.8256 -90.2028 22° Northeast 283 326 8,100 3,339 Climbing Kansas City Center
Mon 09:37:13 PM 38.9056 -90.1628 21° North 306 352 11,000 3,223 Climbing Kansas City Center
Mon 09:38:14 PM 39.0089 -90.1097 22° Northeast 359 413 14,600 3,295 Climbing Kansas City Center
Mon 09:39:15 PM 39.1031 -90.0608 22° Northeast 377 434 17,700 2,736 Climbing Kansas City Center
Mon 09:40:19 PM 39.1961 -90.0133 22° Northeast 384 442 20,300 2,592 Climbing Kansas City Center
Mon 09:41:20 PM 39.3242 -89.9464 22° Northeast 409 471 23,100 2,557 Climbing Kansas City Center
Mon 09:42:21 PM 39.4350 -89.8897 22° Northeast 423 487 25,500 2,115 Climbing Kansas City Center
Mon 09:43:22 PM 39.5475 -89.8308 22° Northeast 431 496 27,400 1,680 Climbing Kansas City Center
Mon 09:44:26 PM 39.6653 -89.7711 21° North 449 517 29,000 774 Climbing Kansas City Center
Mon 09:45:26 PM 39.7936 -89.7019 22° Northeast 458 527 29,000  Level Kansas City Center
Mon 09:46:27 PM 39.9036 -89.6169 31° Northeast 459 528 29,000  Level Kansas City Center
Mon 09:47:28 PM 40.0083 -89.5169 36° Northeast 465 535 29,000  Level Kansas City Center
Mon 09:48:32 PM 40.1128 -89.4189 36° Northeast 465 535 29,000 1,200 Level Kansas City Center
Mon 09:49:33 PM 40.2142 -89.3200 37° Northeast 462 532 31,500 1,920 Climbing Kansas City Center
Mon 09:50:37 PM 40.3289 -89.2114 36° Northeast 438 504 33,000 714 Climbing Chicago Center
Mon 09:51:39 PM 40.4253 -89.1178 36° Northeast 435 501 33,000  Level Chicago Center
Mon 09:52:41 PM 40.5222 -89.0233 37° Northeast 436 502 33,000  Level Chicago Center
Mon 09:53:43 PM 40.6200 -88.9292 36° Northeast 436 502 33,000  Level Chicago Center
Mon 09:54:45 PM 40.7244 -88.8272 36° Northeast 436 502 33,000  Level Chicago Center
Mon 09:55:46 PM 40.8208 -88.7336 36° Northeast 434 499 33,000  Level Chicago Center
Mon 09:56:48 PM 40.9336 -88.6692 23° Northeast 436 502 33,000  Level Chicago Center
Mon 09:57:50 PM 41.0647 -88.5933 24° Northeast 428 493 33,000  Level Chicago Center
Mon 09:58:52 PM 41.1769 -88.5292 23° Northeast 435 501 33,000  Level Chicago Center
Mon 09:59:55 PM 41.2892 -88.4664 23° Northeast 437 503 33,000 -1,200 Level Chicago Center
Mon 10:00:57 PM 41.4033 -88.4014 23° Northeast 442 509 30,500 -2,537 Descending Chicago Center
Mon 10:01:58 PM 41.5186 -88.3342 24° Northeast 443 510 27,800 -2,488 Descending Chicago Center
Mon 10:03:00 PM 41.6381 -88.3164 North 430 495 25,400 -1,839 Descending Chicago Center
Mon 10:04:02 PM 41.7550 -88.3147 North 419 482 24,000 -878 Descending Chicago Center
Mon 10:05:03 PM 41.8678 -88.3133 North 406 467 23,600 -732 Descending Chicago Center
Mon 10:06:05 PM 42.0017 -88.3106 North 401 461 22,500 -1,220 Descending Chicago Center
Mon 10:07:06 PM 42.1108 -88.3119 359° North 393 452 21,100 -1,707 Descending Chicago Center
Mon 10:08:08 PM 42.2172 -88.3100 North 387 445 19,000 -2,032 Descending Chicago Center
Mon 10:09:10 PM 42.3231 -88.3097 360° North 378 435 16,900 -2,098 Descending Chicago Center
Mon 10:10:11 PM 42.4325 -88.3069 North 365 420 14,700 -2,049 Descending Chicago Center
Mon 10:11:13 PM 42.5306 -88.3061 360° North 357 411 12,700 -1,951 Descending Chicago Center
Mon 10:12:14 PM 42.6256 -88.3044 North 346 398 10,700 -1,415 Descending Chicago Center
Mon 10:13:16 PM 42.7081 -88.2747 15° North 328 377 9,800 -780 Descending Chicago Center
Mon 10:14:17 PM 42.7489 -88.1747 61° Northeast 306 352 9,100 -829 Descending Chicago Center
Mon 10:15:19 PM 42.7867 -88.0761 62° Northeast 300 345 8,100 -968 Descending Chicago Center
Mon 10:16:21 PM 42.8225 -87.9786 63° Northeast 295 339 7,100 -878 Descending Chicago Center
Mon 10:17:22 PM 42.8639 -87.8656 63° Northeast 281 323 6,300 -585 Descending Chicago Center
Mon 10:18:24 PM 42.8931 -87.7814 65° Northeast 252 290 5,900 -732 Descending Chicago Center
Mon 10:19:25 PM 42.9225 -87.7122 60° Northeast 224 258 4,800 -1,317 Descending Chicago Center
Mon 10:20:27 PM 42.9728 -87.7281 347° North 203 234 3,200 -1,317 Descending Chicago Center
Mon 10:21:28 PM 42.9686 -87.7911 265° West 173 199 2,100 -836 Descending Chicago Center
Mon 10:22:29 PM 42.9583 -87.8394 254° West 142 163 1,500 -585 Descending Chicago Center
Mon 10:23:31 PM 42.9464 -87.8889 252° West 135 155 900 -581 Descending Chicago Center
Mon 10:25:00 PM 42.9469 -87.8971 277° West  Level Estimated

Login

Don't have an account? Register now (free) for customized features, flight alerts, and more!